sensor_id;sensor_type;location;lat;lon;timestamp;P1;durP1;ratioP1;P2;durP2;ratioP2
12218;SDS011;6172;42.646;23.344;2024-02-28T00:01:50;19.43;;;10.97;;
12218;SDS011;6172;42.646;23.344;2024-02-28T00:04:18;20.90;;;10.93;;
12218;SDS011;6172;42.646;23.344;2024-02-28T00:06:52;19.07;;;10.53;;
12218;SDS011;6172;42.646;23.344;2024-02-28T00:09:36;17.83;;;10.57;;
12218;SDS011;6172;42.646;23.344;2024-02-28T00:12:20;20.23;;;9.97;;
12218;SDS011;6172;42.646;23.344;2024-02-28T00:14:52;21.27;;;11.13;;
12218;SDS011;6172;42.646;23.344;2024-02-28T00:17:20;20.43;;;10.50;;
12218;SDS011;6172;42.646;23.344;2024-02-28T00:19:58;23.07;;;11.63;;
12218;SDS011;6172;42.646;23.344;2024-02-28T00:22:26;19.47;;;10.87;;
12218;SDS011;6172;42.646;23.344;2024-02-28T00:24:54;18.07;;;11.30;;
12218;SDS011;6172;42.646;23.344;2024-02-28T00:27:23;18.67;;;10.77;;
12218;SDS011;6172;42.646;23.344;2024-02-28T00:29:51;16.80;;;10.43;;
12218;SDS011;6172;42.646;23.344;2024-02-28T00:32:19;18.33;;;10.37;;
12218;SDS011;6172;42.646;23.344;2024-02-28T00:34:48;18.33;;;9.67;;
12218;SDS011;6172;42.646;23.344;2024-02-28T00:37:16;16.30;;;10.30;;
12218;SDS011;6172;42.646;23.344;2024-02-28T00:39:44;15.93;;;9.93;;
12218;SDS011;6172;42.646;23.344;2024-02-28T00:42:17;18.20;;;10.53;;
12218;SDS011;6172;42.646;23.344;2024-02-28T00:44:46;16.57;;;10.10;;
12218;SDS011;6172;42.646;23.344;2024-02-28T00:47:15;21.47;;;11.47;;
12218;SDS011;6172;42.646;23.344;2024-02-28T00:49:43;17.33;;;11.43;;
12218;SDS011;6172;42.646;23.344;2024-02-28T00:52:10;22.17;;;11.77;;
12218;SDS011;6172;42.646;23.344;2024-02-28T00:54:39;18.70;;;11.43;;
12218;SDS011;6172;42.646;23.344;2024-02-28T00:57:16;17.40;;;11.20;;
12218;SDS011;6172;42.646;23.344;2024-02-28T00:59:44;20.37;;;12.00;;
12218;SDS011;6172;42.646;23.344;2024-02-28T01:02:14;17.20;;;10.57;;
12218;SDS011;6172;42.646;23.344;2024-02-28T01:04:41;16.73;;;10.47;;
12218;SDS011;6172;42.646;23.344;2024-02-28T01:07:08;16.47;;;10.23;;
12218;SDS011;6172;42.646;23.344;2024-02-28T01:09:36;16.27;;;9.77;;
12218;SDS011;6172;42.646;23.344;2024-02-28T01:12:04;18.03;;;10.00;;
12218;SDS011;6172;42.646;23.344;2024-02-28T01:14:32;18.80;;;10.10;;
12218;SDS011;6172;42.646;23.344;2024-02-28T01:17:02;19.90;;;10.93;;
12218;SDS011;6172;42.646;23.344;2024-02-28T01:19:30;20.67;;;10.67;;
12218;SDS011;6172;42.646;23.344;2024-02-28T01:21:58;13.33;;;9.00;;
12218;SDS011;6172;42.646;23.344;2024-02-28T01:24:26;17.43;;;10.27;;
12218;SDS011;6172;42.646;23.344;2024-02-28T01:26:55;18.70;;;9.93;;
12218;SDS011;6172;42.646;23.344;2024-02-28T01:29:25;18.47;;;10.33;;
12218;SDS011;6172;42.646;23.344;2024-02-28T01:31:52;18.03;;;10.87;;
12218;SDS011;6172;42.646;23.344;2024-02-28T01:34:24;18.37;;;10.90;;
12218;SDS011;6172;42.646;23.344;2024-02-28T01:36:52;19.23;;;9.93;;
12218;SDS011;6172;42.646;23.344;2024-02-28T01:39:19;19.90;;;10.60;;
12218;SDS011;6172;42.646;23.344;2024-02-28T01:41:51;16.10;;;9.67;;
12218;SDS011;6172;42.646;23.344;2024-02-28T01:44:18;18.80;;;10.20;;
12218;SDS011;6172;42.646;23.344;2024-02-28T01:46:46;16.47;;;9.30;;
12218;SDS011;6172;42.646;23.344;2024-02-28T01:49:15;15.70;;;10.13;;
12218;SDS011;6172;42.646;23.344;2024-02-28T01:51:46;14.10;;;9.40;;
12218;SDS011;6172;42.646;23.344;2024-02-28T01:54:15;14.50;;;8.53;;
12218;SDS011;6172;42.646;23.344;2024-02-28T01:56:58;15.00;;;9.03;;
12218;SDS011;6172;42.646;23.344;2024-02-28T01:59:36;16.37;;;8.97;;
12218;SDS011;6172;42.646;23.344;2024-02-28T02:02:05;17.03;;;9.03;;
12218;SDS011;6172;42.646;23.344;2024-02-28T02:04:48;15.57;;;8.43;;
12218;SDS011;6172;42.646;23.344;2024-02-28T02:07:19;17.67;;;9.70;;
12218;SDS011;6172;42.646;23.344;2024-02-28T02:09:58;16.63;;;9.27;;
12218;SDS011;6172;42.646;23.344;2024-02-28T02:12:39;15.00;;;9.57;;
12218;SDS011;6172;42.646;23.344;2024-02-28T02:15:12;17.87;;;9.83;;
12218;SDS011;6172;42.646;23.344;2024-02-28T02:17:40;17.20;;;9.23;;
12218;SDS011;6172;42.646;23.344;2024-02-28T02:20:14;14.37;;;9.37;;
12218;SDS011;6172;42.646;23.344;2024-02-28T02:22:47;16.23;;;9.73;;
12218;SDS011;6172;42.646;23.344;2024-02-28T02:25:16;14.00;;;8.50;;
12218;SDS011;6172;42.646;23.344;2024-02-28T02:27:43;13.60;;;8.97;;
12218;SDS011;6172;42.646;23.344;2024-02-28T02:30:11;16.00;;;9.77;;
12218;SDS011;6172;42.646;23.344;2024-02-28T02:32:38;17.80;;;9.17;;
12218;SDS011;6172;42.646;23.344;2024-02-28T02:35:06;15.37;;;9.47;;
12218;SDS011;6172;42.646;23.344;2024-02-28T02:37:33;15.63;;;8.77;;
12218;SDS011;6172;42.646;23.344;2024-02-28T02:40:02;14.47;;;9.37;;
12218;SDS011;6172;42.646;23.344;2024-02-28T02:42:30;20.57;;;9.93;;
12218;SDS011;6172;42.646;23.344;2024-02-28T02:44:57;19.20;;;10.47;;
12218;SDS011;6172;42.646;23.344;2024-02-28T02:47:25;17.80;;;9.97;;
12218;SDS011;6172;42.646;23.344;2024-02-28T02:49:52;14.10;;;9.30;;
12218;SDS011;6172;42.646;23.344;2024-02-28T02:52:20;14.90;;;8.63;;
12218;SDS011;6172;42.646;23.344;2024-02-28T02:54:47;16.83;;;9.57;;
12218;SDS011;6172;42.646;23.344;2024-02-28T02:57:16;17.50;;;8.67;;
12218;SDS011;6172;42.646;23.344;2024-02-28T02:59:44;18.43;;;9.40;;
12218;SDS011;6172;42.646;23.344;2024-02-28T03:02:13;14.80;;;8.90;;
12218;SDS011;6172;42.646;23.344;2024-02-28T03:04:43;21.20;;;10.13;;
12218;SDS011;6172;42.646;23.344;2024-02-28T03:07:11;17.03;;;9.67;;
12218;SDS011;6172;42.646;23.344;2024-02-28T03:09:40;16.37;;;9.23;;
12218;SDS011;6172;42.646;23.344;2024-02-28T03:12:13;18.73;;;10.10;;
12218;SDS011;6172;42.646;23.344;2024-02-28T03:14:41;16.17;;;9.10;;
12218;SDS011;6172;42.646;23.344;2024-02-28T03:17:09;16.70;;;10.90;;
12218;SDS011;6172;42.646;23.344;2024-02-28T03:19:44;22.83;;;10.97;;
12218;SDS011;6172;42.646;23.344;2024-02-28T03:22:32;21.47;;;11.97;;
12218;SDS011;6172;42.646;23.344;2024-02-28T03:25:00;21.07;;;12.13;;
12218;SDS011;6172;42.646;23.344;2024-02-28T03:27:54;17.87;;;10.80;;
12218;SDS011;6172;42.646;23.344;2024-02-28T03:30:23;24.33;;;11.13;;
12218;SDS011;6172;42.646;23.344;2024-02-28T03:33:04;17.40;;;11.13;;
12218;SDS011;6172;42.646;23.344;2024-02-28T03:35:34;24.33;;;12.53;;
12218;SDS011;6172;42.646;23.344;2024-02-28T03:38:16;25.97;;;12.30;;
12218;SDS011;6172;42.646;23.344;2024-02-28T03:40:57;15.27;;;9.90;;
12218;SDS011;6172;42.646;23.344;2024-02-28T03:43:25;25.20;;;12.60;;
12218;SDS011;6172;42.646;23.344;2024-02-28T03:48:43;18.40;;;11.00;;
12218;SDS011;6172;42.646;23.344;2024-02-28T03:51:14;21.50;;;11.93;;
12218;SDS011;6172;42.646;23.344;2024-02-28T03:53:42;17.53;;;11.40;;
12218;SDS011;6172;42.646;23.344;2024-02-28T03:56:08;19.17;;;11.03;;
12218;SDS011;6172;42.646;23.344;2024-02-28T03:58:36;20.57;;;11.10;;
12218;SDS011;6172;42.646;23.344;2024-02-28T04:01:04;21.33;;;11.57;;
12218;SDS011;6172;42.646;23.344;2024-02-28T04:03:33;18.40;;;10.50;;
12218;SDS011;6172;42.646;23.344;2024-02-28T04:06:00;18.17;;;10.33;;
12218;SDS011;6172;42.646;23.344;2024-02-28T04:08:28;18.27;;;11.27;;
12218;SDS011;6172;42.646;23.344;2024-02-28T04:10:57;21.40;;;11.13;;
12218;SDS011;6172;42.646;23.344;2024-02-28T04:13:25;19.87;;;11.30;;
12218;SDS011;6172;42.646;23.344;2024-02-28T04:15:58;17.80;;;10.57;;
12218;SDS011;6172;42.646;23.344;2024-02-28T04:21:44;18.03;;;9.97;;
12218;SDS011;6172;42.646;23.344;2024-02-28T04:24:13;23.23;;;10.87;;
12218;SDS011;6172;42.646;23.344;2024-02-28T04:26:41;20.87;;;10.07;;
12218;SDS011;6172;42.646;23.344;2024-02-28T04:29:08;22.77;;;12.27;;
12218;SDS011;6172;42.646;23.344;2024-02-28T04:31:39;22.53;;;11.13;;
12218;SDS011;6172;42.646;23.344;2024-02-28T04:34:06;17.87;;;10.07;;
12218;SDS011;6172;42.646;23.344;2024-02-28T04:36:33;21.60;;;11.17;;
12218;SDS011;6172;42.646;23.344;2024-02-28T04:39:16;19.40;;;10.83;;
12218;SDS011;6172;42.646;23.344;2024-02-28T04:41:43;19.70;;;11.63;;
12218;SDS011;6172;42.646;23.344;2024-02-28T04:44:10;21.13;;;11.53;;
12218;SDS011;6172;42.646;23.344;2024-02-28T04:46:39;18.93;;;12.00;;
12218;SDS011;6172;42.646;23.344;2024-02-28T04:49:16;17.77;;;11.30;;
12218;SDS011;6172;42.646;23.344;2024-02-28T04:51:43;18.67;;;10.87;;
12218;SDS011;6172;42.646;23.344;2024-02-28T04:54:12;24.03;;;12.73;;
12218;SDS011;6172;42.646;23.344;2024-02-28T04:56:41;20.37;;;11.90;;
12218;SDS011;6172;42.646;23.344;2024-02-28T04:59:12;23.83;;;13.33;;
12218;SDS011;6172;42.646;23.344;2024-02-28T05:01:41;20.60;;;11.37;;
12218;SDS011;6172;42.646;23.344;2024-02-28T05:04:08;23.10;;;12.20;;
12218;SDS011;6172;42.646;23.344;2024-02-28T05:06:37;18.87;;;11.27;;
12218;SDS011;6172;42.646;23.344;2024-02-28T05:09:06;19.30;;;11.70;;
12218;SDS011;6172;42.646;23.344;2024-02-28T05:11:34;17.63;;;10.60;;
12218;SDS011;6172;42.646;23.344;2024-02-28T05:14:02;22.20;;;11.80;;
12218;SDS011;6172;42.646;23.344;2024-02-28T05:16:30;23.80;;;12.50;;
12218;SDS011;6172;42.646;23.344;2024-02-28T05:18:58;20.50;;;11.93;;
12218;SDS011;6172;42.646;23.344;2024-02-28T05:21:27;19.87;;;11.43;;
12218;SDS011;6172;42.646;23.344;2024-02-28T05:23:55;20.43;;;11.77;;
12218;SDS011;6172;42.646;23.344;2024-02-28T05:26:25;20.97;;;11.33;;
12218;SDS011;6172;42.646;23.344;2024-02-28T05:28:53;21.03;;;12.30;;
12218;SDS011;6172;42.646;23.344;2024-02-28T05:31:26;21.43;;;11.97;;
12218;SDS011;6172;42.646;23.344;2024-02-28T05:33:57;19.37;;;11.50;;
12218;SDS011;6172;42.646;23.344;2024-02-28T05:36:26;21.83;;;12.37;;
12218;SDS011;6172;42.646;23.344;2024-02-28T05:38:54;23.10;;;12.73;;
12218;SDS011;6172;42.646;23.344;2024-02-28T05:41:22;20.93;;;12.13;;
12218;SDS011;6172;42.646;23.344;2024-02-28T05:43:50;22.53;;;13.07;;
12218;SDS011;6172;42.646;23.344;2024-02-28T05:46:18;22.00;;;12.93;;
12218;SDS011;6172;42.646;23.344;2024-02-28T05:48:53;22.57;;;12.73;;
12218;SDS011;6172;42.646;23.344;2024-02-28T05:51:22;23.70;;;13.10;;
12218;SDS011;6172;42.646;23.344;2024-02-28T05:54:03;19.90;;;12.67;;
12218;SDS011;6172;42.646;23.344;2024-02-28T05:56:30;23.93;;;13.50;;
12218;SDS011;6172;42.646;23.344;2024-02-28T05:58:57;23.33;;;13.33;;
12218;SDS011;6172;42.646;23.344;2024-02-28T06:01:26;28.30;;;14.03;;
12218;SDS011;6172;42.646;23.344;2024-02-28T06:03:55;25.40;;;13.13;;
12218;SDS011;6172;42.646;23.344;2024-02-28T06:06:25;26.57;;;14.47;;
12218;SDS011;6172;42.646;23.344;2024-02-28T06:08:53;25.17;;;14.20;;
12218;SDS011;6172;42.646;23.344;2024-02-28T06:11:22;23.47;;;13.90;;
12218;SDS011;6172;42.646;23.344;2024-02-28T06:13:51;23.43;;;15.30;;
12218;SDS011;6172;42.646;23.344;2024-02-28T06:16:23;25.03;;;14.43;;
12218;SDS011;6172;42.646;23.344;2024-02-28T06:18:52;22.70;;;14.13;;
12218;SDS011;6172;42.646;23.344;2024-02-28T06:21:22;24.00;;;14.20;;
12218;SDS011;6172;42.646;23.344;2024-02-28T06:23:52;23.83;;;13.80;;
12218;SDS011;6172;42.646;23.344;2024-02-28T06:26:20;19.87;;;13.03;;
12218;SDS011;6172;42.646;23.344;2024-02-28T06:28:49;24.10;;;13.47;;
12218;SDS011;6172;42.646;23.344;2024-02-28T06:31:18;25.27;;;15.67;;
12218;SDS011;6172;42.646;23.344;2024-02-28T06:33:57;30.67;;;15.50;;
12218;SDS011;6172;42.646;23.344;2024-02-28T06:36:55;25.63;;;15.60;;
12218;SDS011;6172;42.646;23.344;2024-02-28T06:43:29;22.27;;;13.83;;
12218;SDS011;6172;42.646;23.344;2024-02-28T06:45:57;21.07;;;14.27;;
12218;SDS011;6172;42.646;23.344;2024-02-28T06:48:28;25.87;;;13.57;;
12218;SDS011;6172;42.646;23.344;2024-02-28T06:50:58;19.57;;;12.80;;
12218;SDS011;6172;42.646;23.344;2024-02-28T06:53:28;25.97;;;13.67;;
12218;SDS011;6172;42.646;23.344;2024-02-28T06:55:56;21.43;;;13.47;;
12218;SDS011;6172;42.646;23.344;2024-02-28T06:58:26;23.97;;;13.23;;
12218;SDS011;6172;42.646;23.344;2024-02-28T07:00:58;24.30;;;13.13;;
12218;SDS011;6172;42.646;23.344;2024-02-28T07:03:26;20.27;;;12.80;;
12218;SDS011;6172;42.646;23.344;2024-02-28T07:05:57;23.73;;;13.77;;
12218;SDS011;6172;42.646;23.344;2024-02-28T07:08:29;20.87;;;12.90;;
12218;SDS011;6172;42.646;23.344;2024-02-28T07:10:59;17.70;;;12.10;;
12218;SDS011;6172;42.646;23.344;2024-02-28T07:13:27;20.10;;;13.30;;
12218;SDS011;6172;42.646;23.344;2024-02-28T07:15:55;18.07;;;12.20;;
12218;SDS011;6172;42.646;23.344;2024-02-28T07:18:25;21.10;;;13.27;;
12218;SDS011;6172;42.646;23.344;2024-02-28T07:24:02;20.27;;;12.80;;
12218;SDS011;6172;42.646;23.344;2024-02-28T07:36:53;19.23;;;12.83;;
12218;SDS011;6172;42.646;23.344;2024-02-28T07:39:20;24.10;;;13.03;;
12218;SDS011;6172;42.646;23.344;2024-02-28T07:41:49;18.80;;;12.50;;
12218;SDS011;6172;42.646;23.344;2024-02-28T07:44:17;20.57;;;12.63;;
12218;SDS011;6172;42.646;23.344;2024-02-28T07:46:44;18.27;;;13.13;;
12218;SDS011;6172;42.646;23.344;2024-02-28T07:49:11;20.30;;;12.53;;
12218;SDS011;6172;42.646;23.344;2024-02-28T07:51:39;20.23;;;12.10;;
12218;SDS011;6172;42.646;23.344;2024-02-28T07:54:11;18.57;;;11.93;;
12218;SDS011;6172;42.646;23.344;2024-02-28T07:56:40;19.23;;;10.90;;
12218;SDS011;6172;42.646;23.344;2024-02-28T07:59:07;19.00;;;11.73;;
12218;SDS011;6172;42.646;23.344;2024-02-28T08:01:34;17.23;;;11.90;;
12218;SDS011;6172;42.646;23.344;2024-02-28T08:04:04;17.73;;;11.30;;
12218;SDS011;6172;42.646;23.344;2024-02-28T08:06:31;19.53;;;12.33;;
12218;SDS011;6172;42.646;23.344;2024-02-28T08:08:59;19.60;;;11.83;;
12218;SDS011;6172;42.646;23.344;2024-02-28T08:11:29;17.27;;;11.23;;
12218;SDS011;6172;42.646;23.344;2024-02-28T08:13:56;15.77;;;11.27;;
12218;SDS011;6172;42.646;23.344;2024-02-28T08:16:23;17.97;;;10.83;;
12218;SDS011;6172;42.646;23.344;2024-02-28T08:18:51;16.90;;;11.20;;
12218;SDS011;6172;42.646;23.344;2024-02-28T08:21:18;15.50;;;10.57;;
12218;SDS011;6172;42.646;23.344;2024-02-28T08:23:45;19.93;;;11.00;;
12218;SDS011;6172;42.646;23.344;2024-02-28T08:26:13;22.33;;;11.47;;
12218;SDS011;6172;42.646;23.344;2024-02-28T08:29:11;20.03;;;11.03;;
12218;SDS011;6172;42.646;23.344;2024-02-28T08:31:41;15.50;;;9.97;;
12218;SDS011;6172;42.646;23.344;2024-02-28T08:34:09;15.17;;;10.33;;
12218;SDS011;6172;42.646;23.344;2024-02-28T08:36:37;18.93;;;10.73;;
12218;SDS011;6172;42.646;23.344;2024-02-28T08:39:06;19.92;;;11.43;;
12218;SDS011;6172;42.646;23.344;2024-02-28T08:41:34;20.73;;;11.20;;
12218;SDS011;6172;42.646;23.344;2024-02-28T08:44:01;21.13;;;11.48;;
12218;SDS011;6172;42.646;23.344;2024-02-28T08:46:30;22.75;;;12.68;;
12218;SDS011;6172;42.646;23.344;2024-02-28T08:48:57;21.13;;;12.53;;
12218;SDS011;6172;42.646;23.344;2024-02-28T08:51:24;18.70;;;11.27;;
12218;SDS011;6172;42.646;23.344;2024-02-28T08:53:52;18.43;;;11.00;;
12218;SDS011;6172;42.646;23.344;2024-02-28T08:56:20;17.47;;;10.70;;
12218;SDS011;6172;42.646;23.344;2024-02-28T08:58:47;18.33;;;11.70;;
12218;SDS011;6172;42.646;23.344;2024-02-28T09:01:14;18.33;;;11.07;;
12218;SDS011;6172;42.646;23.344;2024-02-28T09:03:43;19.87;;;11.47;;
12218;SDS011;6172;42.646;23.344;2024-02-28T09:06:10;19.47;;;12.73;;
12218;SDS011;6172;42.646;23.344;2024-02-28T09:08:37;18.87;;;13.00;;
12218;SDS011;6172;42.646;23.344;2024-02-28T09:11:04;25.83;;;13.83;;
12218;SDS011;6172;42.646;23.344;2024-02-28T09:13:31;24.00;;;14.27;;
12218;SDS011;6172;42.646;23.344;2024-02-28T09:15:58;24.17;;;13.63;;
12218;SDS011;6172;42.646;23.344;2024-02-28T09:18:25;21.53;;;14.27;;
12218;SDS011;6172;42.646;23.344;2024-02-28T09:20:54;20.23;;;13.47;;
12218;SDS011;6172;42.646;23.344;2024-02-28T09:23:21;21.97;;;14.03;;
12218;SDS011;6172;42.646;23.344;2024-02-28T09:25:48;24.93;;;13.77;;
12218;SDS011;6172;42.646;23.344;2024-02-28T09:28:15;24.17;;;13.80;;
12218;SDS011;6172;42.646;23.344;2024-02-28T09:30:44;21.47;;;13.67;;
12218;SDS011;6172;42.646;23.344;2024-02-28T09:33:12;22.87;;;14.30;;
12218;SDS011;6172;42.646;23.344;2024-02-28T09:35:39;25.50;;;15.13;;
12218;SDS011;6172;42.646;23.344;2024-02-28T09:38:09;24.20;;;14.30;;
12218;SDS011;6172;42.646;23.344;2024-02-28T09:40:36;25.50;;;15.60;;
12218;SDS011;6172;42.646;23.344;2024-02-28T09:43:04;24.90;;;15.40;;
12218;SDS011;6172;42.646;23.344;2024-02-28T09:45:31;24.77;;;15.93;;
12218;SDS011;6172;42.646;23.344;2024-02-28T09:47:58;20.57;;;14.00;;
12218;SDS011;6172;42.646;23.344;2024-02-28T09:50:28;21.93;;;14.33;;
12218;SDS011;6172;42.646;23.344;2024-02-28T09:52:55;24.37;;;14.37;;
12218;SDS011;6172;42.646;23.344;2024-02-28T09:55:24;23.33;;;14.83;;
12218;SDS011;6172;42.646;23.344;2024-02-28T09:57:51;23.53;;;13.73;;
12218;SDS011;6172;42.646;23.344;2024-02-28T10:00:19;25.43;;;14.60;;
12218;SDS011;6172;42.646;23.344;2024-02-28T10:02:47;19.70;;;13.50;;
12218;SDS011;6172;42.646;23.344;2024-02-28T10:05:15;21.90;;;13.50;;
12218;SDS011;6172;42.646;23.344;2024-02-28T10:07:44;19.77;;;13.40;;
12218;SDS011;6172;42.646;23.344;2024-02-28T10:10:13;17.93;;;12.77;;
12218;SDS011;6172;42.646;23.344;2024-02-28T10:12:44;20.40;;;13.50;;
12218;SDS011;6172;42.646;23.344;2024-02-28T10:15:12;18.83;;;11.93;;
12218;SDS011;6172;42.646;23.344;2024-02-28T10:17:39;22.57;;;11.73;;
12218;SDS011;6172;42.646;23.344;2024-02-28T10:20:10;21.73;;;11.43;;
12218;SDS011;6172;42.646;23.344;2024-02-28T10:22:38;20.97;;;12.07;;
12218;SDS011;6172;42.646;23.344;2024-02-28T10:25:08;20.67;;;11.47;;
12218;SDS011;6172;42.646;23.344;2024-02-28T10:27:38;18.60;;;11.13;;
12218;SDS011;6172;42.646;23.344;2024-02-28T10:30:09;19.50;;;10.80;;
12218;SDS011;6172;42.646;23.344;2024-02-28T10:32:36;17.97;;;10.27;;
12218;SDS011;6172;42.646;23.344;2024-02-28T10:35:05;14.87;;;9.63;;
12218;SDS011;6172;42.646;23.344;2024-02-28T10:37:40;16.03;;;9.77;;
12218;SDS011;6172;42.646;23.344;2024-02-28T10:40:28;13.60;;;8.87;;
12218;SDS011;6172;42.646;23.344;2024-02-28T10:42:56;16.57;;;9.10;;
12218;SDS011;6172;42.646;23.344;2024-02-28T10:45:28;13.10;;;7.70;;
12218;SDS011;6172;42.646;23.344;2024-02-28T10:47:57;12.77;;;7.97;;
12218;SDS011;6172;42.646;23.344;2024-02-28T10:50:33;12.63;;;8.70;;
12218;SDS011;6172;42.646;23.344;2024-02-28T10:53:06;11.20;;;7.80;;
12218;SDS011;6172;42.646;23.344;2024-02-28T10:55:41;14.70;;;8.27;;
12218;SDS011;6172;42.646;23.344;2024-02-28T10:58:11;10.33;;;7.27;;
12218;SDS011;6172;42.646;23.344;2024-02-28T11:03:15;10.88;;;7.22;;
12218;SDS011;6172;42.646;23.344;2024-02-28T11:05:45;13.60;;;8.02;;
12218;SDS011;6172;42.646;23.344;2024-02-28T11:08:20;11.68;;;7.68;;
12218;SDS011;6172;42.646;23.344;2024-02-28T11:10:57;10.20;;;7.50;;
12218;SDS011;6172;42.646;23.344;2024-02-28T11:13:29;9.63;;;7.70;;
12218;SDS011;6172;42.646;23.344;2024-02-28T11:16:08;11.77;;;6.50;;
12218;SDS011;6172;42.646;23.344;2024-02-28T11:18:47;9.70;;;6.73;;
12218;SDS011;6172;42.646;23.344;2024-02-28T11:21:16;11.52;;;6.82;;
12218;SDS011;6172;42.646;23.344;2024-02-28T11:23:45;14.13;;;7.63;;
12218;SDS011;6172;42.646;23.344;2024-02-28T11:26:13;13.40;;;7.27;;
12218;SDS011;6172;42.646;23.344;2024-02-28T11:28:40;11.53;;;6.67;;
12218;SDS011;6172;42.646;23.344;2024-02-28T11:37:05;10.07;;;6.88;;
12218;SDS011;6172;42.646;23.344;2024-02-28T11:39:36;10.23;;;6.07;;
12218;SDS011;6172;42.646;23.344;2024-02-28T11:42:20;10.88;;;6.43;;
12218;SDS011;6172;42.646;23.344;2024-02-28T11:44:54;9.32;;;6.82;;
12218;SDS011;6172;42.646;23.344;2024-02-28T11:47:25;6.80;;;6.10;;
12218;SDS011;6172;42.646;23.344;2024-02-28T12:04:06;9.23;;;5.32;;
12218;SDS011;6172;42.646;23.344;2024-02-28T12:06:37;7.90;;;4.90;;
12218;SDS011;6172;42.646;23.344;2024-02-28T12:09:05;7.90;;;5.25;;
12218;SDS011;6172;42.646;23.344;2024-02-28T12:11:44;7.88;;;4.80;;
12218;SDS011;6172;42.646;23.344;2024-02-28T12:14:14;11.20;;;6.45;;
12218;SDS011;6172;42.646;23.344;2024-02-28T12:16:41;10.38;;;6.10;;
12218;SDS011;6172;42.646;23.344;2024-02-28T12:19:13;10.25;;;5.13;;
12218;SDS011;6172;42.646;23.344;2024-02-28T12:21:41;10.45;;;6.10;;
12218;SDS011;6172;42.646;23.344;2024-02-28T12:24:10;7.13;;;4.85;;
12218;SDS011;6172;42.646;23.344;2024-02-28T12:26:37;8.40;;;5.50;;
12218;SDS011;6172;42.646;23.344;2024-02-28T12:29:05;8.63;;;5.65;;
12218;SDS011;6172;42.646;23.344;2024-02-28T12:31:32;9.40;;;6.40;;
12218;SDS011;6172;42.646;23.344;2024-02-28T12:34:00;14.32;;;6.57;;
12218;SDS011;6172;42.646;23.344;2024-02-28T12:36:32;12.63;;;7.50;;
12218;SDS011;6172;42.646;23.344;2024-02-28T12:39:00;11.68;;;7.18;;
12218;SDS011;6172;42.646;23.344;2024-02-28T12:41:31;11.27;;;6.70;;
12218;SDS011;6172;42.646;23.344;2024-02-28T12:44:01;11.03;;;6.57;;
12218;SDS011;6172;42.646;23.344;2024-02-28T12:46:32;11.63;;;6.97;;
12218;SDS011;6172;42.646;23.344;2024-02-28T12:49:45;12.80;;;7.07;;
12218;SDS011;6172;42.646;23.344;2024-02-28T12:55:02;9.88;;;7.25;;
12218;SDS011;6172;42.646;23.344;2024-02-28T12:57:34;9.60;;;6.95;;
12218;SDS011;6172;42.646;23.344;2024-02-28T13:00:03;12.20;;;6.75;;
12218;SDS011;6172;42.646;23.344;2024-02-28T13:02:33;12.20;;;6.63;;
12218;SDS011;6172;42.646;23.344;2024-02-28T13:05:00;8.50;;;6.05;;
12218;SDS011;6172;42.646;23.344;2024-02-28T13:08:01;9.63;;;6.30;;
12218;SDS011;6172;42.646;23.344;2024-02-28T13:10:29;8.35;;;6.05;;
12218;SDS011;6172;42.646;23.344;2024-02-28T13:13:12;11.15;;;5.95;;
12218;SDS011;6172;42.646;23.344;2024-02-28T13:15:51;10.40;;;5.72;;
12218;SDS011;6172;42.646;23.344;2024-02-28T13:18:19;10.10;;;6.28;;
12218;SDS011;6172;42.646;23.344;2024-02-28T13:20:47;9.48;;;5.38;;
12218;SDS011;6172;42.646;23.344;2024-02-28T13:23:15;10.35;;;6.00;;
12218;SDS011;6172;42.646;23.344;2024-02-28T13:25:45;10.27;;;5.75;;
12218;SDS011;6172;42.646;23.344;2024-02-28T13:28:21;9.15;;;5.93;;
12218;SDS011;6172;42.646;23.344;2024-02-28T13:30:54;7.65;;;5.10;;
12218;SDS011;6172;42.646;23.344;2024-02-28T13:33:22;6.10;;;4.90;;
12218;SDS011;6172;42.646;23.344;2024-02-28T13:35:49;11.07;;;5.07;;
12218;SDS011;6172;42.646;23.344;2024-02-28T13:38:21;10.63;;;5.20;;
12218;SDS011;6172;42.646;23.344;2024-02-28T13:40:49;10.35;;;5.43;;
12218;SDS011;6172;42.646;23.344;2024-02-28T13:43:17;9.57;;;5.37;;
12218;SDS011;6172;42.646;23.344;2024-02-28T13:45:45;11.10;;;5.63;;
12218;SDS011;6172;42.646;23.344;2024-02-28T13:48:15;11.80;;;5.90;;
12218;SDS011;6172;42.646;23.344;2024-02-28T13:50:44;9.23;;;5.80;;
12218;SDS011;6172;42.646;23.344;2024-02-28T13:53:11;10.00;;;5.60;;
12218;SDS011;6172;42.646;23.344;2024-02-28T13:55:57;10.70;;;5.88;;
12218;SDS011;6172;42.646;23.344;2024-02-28T13:58:25;12.83;;;5.77;;
12218;SDS011;6172;42.646;23.344;2024-02-28T14:00:53;10.87;;;5.33;;
12218;SDS011;6172;42.646;23.344;2024-02-28T14:03:23;8.87;;;5.17;;
12218;SDS011;6172;42.646;23.344;2024-02-28T14:05:51;9.73;;;5.93;;
12218;SDS011;6172;42.646;23.344;2024-02-28T14:08:23;10.00;;;5.20;;
12218;SDS011;6172;42.646;23.344;2024-02-28T14:11:02;11.57;;;5.73;;
12218;SDS011;6172;42.646;23.344;2024-02-28T14:13:30;10.48;;;5.43;;
12218;SDS011;6172;42.646;23.344;2024-02-28T14:15:58;12.32;;;5.38;;
12218;SDS011;6172;42.646;23.344;2024-02-28T14:18:27;11.73;;;6.10;;
12218;SDS011;6172;42.646;23.344;2024-02-28T14:20:54;8.37;;;5.17;;
12218;SDS011;6172;42.646;23.344;2024-02-28T14:23:22;11.75;;;5.78;;
12218;SDS011;6172;42.646;23.344;2024-02-28T14:25:50;11.37;;;6.47;;
12218;SDS011;6172;42.646;23.344;2024-02-28T14:28:23;9.80;;;6.00;;
12218;SDS011;6172;42.646;23.344;2024-02-28T14:30:50;10.17;;;5.30;;
12218;SDS011;6172;42.646;23.344;2024-02-28T14:33:17;7.07;;;4.93;;
12218;SDS011;6172;42.646;23.344;2024-02-28T14:35:44;9.47;;;5.70;;
12218;SDS011;6172;42.646;23.344;2024-02-28T14:38:25;13.97;;;5.67;;
12218;SDS011;6172;42.646;23.344;2024-02-28T14:40:55;10.60;;;6.73;;
12218;SDS011;6172;42.646;23.344;2024-02-28T14:43:24;10.27;;;5.77;;
12218;SDS011;6172;42.646;23.344;2024-02-28T14:45:55;9.03;;;5.80;;
12218;SDS011;6172;42.646;23.344;2024-02-28T14:48:25;12.53;;;6.20;;
12218;SDS011;6172;42.646;23.344;2024-02-28T14:50:53;9.77;;;5.50;;
12218;SDS011;6172;42.646;23.344;2024-02-28T14:53:23;11.07;;;5.10;;
12218;SDS011;6172;42.646;23.344;2024-02-28T14:55:56;10.50;;;5.13;;
12218;SDS011;6172;42.646;23.344;2024-02-28T14:58:27;12.10;;;5.57;;
12218;SDS011;6172;42.646;23.344;2024-02-28T15:00:54;14.03;;;6.07;;
12218;SDS011;6172;42.646;23.344;2024-02-28T15:03:27;10.27;;;5.50;;
12218;SDS011;6172;42.646;23.344;2024-02-28T15:06:03;22.83;;;6.27;;
12218;SDS011;6172;42.646;23.344;2024-02-28T15:08:33;15.00;;;6.47;;
12218;SDS011;6172;42.646;23.344;2024-02-28T15:11:00;14.38;;;6.25;;
12218;SDS011;6172;42.646;23.344;2024-02-28T15:13:31;12.83;;;5.07;;
12218;SDS011;6172;42.646;23.344;2024-02-28T15:15:59;9.10;;;6.03;;
12218;SDS011;6172;42.646;23.344;2024-02-28T15:18:26;15.43;;;6.67;;
12218;SDS011;6172;42.646;23.344;2024-02-28T15:20:57;14.10;;;6.57;;
12218;SDS011;6172;42.646;23.344;2024-02-28T15:23:28;13.83;;;7.03;;
12218;SDS011;6172;42.646;23.344;2024-02-28T15:25:56;13.93;;;6.73;;
12218;SDS011;6172;42.646;23.344;2024-02-28T15:28:24;12.50;;;6.70;;
12218;SDS011;6172;42.646;23.344;2024-02-28T15:30:56;13.83;;;7.03;;
12218;SDS011;6172;42.646;23.344;2024-02-28T15:33:34;12.73;;;7.27;;
12218;SDS011;6172;42.646;23.344;2024-02-28T15:36:14;17.80;;;6.67;;